Pagrindinis puslapis
METAR-TAF:

METAR-TAF

Oro uostai :

Samujis, Tailandas

platuma: 09-32-52N, ilguma: 100-03-44E, Aukštis: 20 m

Dabartinis oras

Ataskaita buvo paskelbta 3 valandos ir 34 minutes, ne 15:00 UTC
Ramus vėjas
Temperatūra 29°C
Drėgmė 84%
Slėgis 1009 hPa
Matomumas 10 km arba daugiau
Mažai debesys ne aukštis 2000 ft

METAR: VTSM 301500Z 00000KT 9999 FEW020 29/26 Q1009 NOSIG

Laikas: 01:34 (18:34 UTC)

Prognozė

Ataskaita buvo paskelbta 1 valandą ir 34 minutes, ne 17:00 UTC
Prognozė galioja nuo 30 metu 18 UTC su 01 metu 18 UTC
Vėjas 5 kt iš Vakarų/Šiaurės Vakarų
Matomumas 10 km arba daugiau
Mažai debesys ne aukštis 2000 ft
Laikinai
nuo 01 metu 09 UTC su 01 metu 15 UTC
Vėjas 10 kt iš Vakarų/Šiaurės Vakarų su gūsio iki 20 kt
Matomumas: 3000 m
Mažai debesys ne aukštis 1600 ft, Liūtiniai kamuoliniai debesys.
Išsisklaidę debesys ne aukštis 1800 ft
Su prošvaistėmis ne aukštis 10000 ft
perkūnija, lietus

TAF: VTSM 301700Z 3018/0118 29005KT 9999 FEW020 TEMPO 0109/0115 29010G20KT 3000 TSRA FEW016CB SCT018 BKN100

Orai ataskaitas ir orų prognozės (METAR, TAF).

turimą stotys yra geltonos ir raudonos taškus žemėlapyje.

Perkelti pele per norėdami pamatyti stoties vardą.

Tada spustelėkite, norėdami matyti oro stebėjimo ir prognozės.

Norėdami pakeisti žemėlapį: spustelėkite ant žalios mygtukų su juodo kryžiaus žemyn,; žalią mygtuką su brūkšneliu, jei norite nutolinti; arba žalių rodyklių gretimoms žemėlapius.


METAR-TAF: